Time;durP1;ratioP1;P1;durP2;ratioP2;P2;SDS_P1;SDS_P2;PMS_P1;PMS_P2;Temp;Humidity;BMP_temperature;BMP_pressure;BME280_temperature;BME280_humidity;BME280_pressure;Samples;Min_cycle;Max_cycle;Signal;HPM_P1;HPM_P2
2022/07/30 00:02:20;;;;;;;11.03;7.87;;;21.50;1.00;;;;;;5089915;28;20191;-72
2022/07/30 00:04:46;;;;;;;9.60;7.57;;;21.60;1.00;;;;;;5098420;28;21088;-72
2022/07/30 00:07:12;;;;;;;12.03;8.23;;;21.60;1.00;;;;;;5090578;28;20167;-72
2022/07/30 00:09:38;;;;;;;12.63;7.50;;;21.60;1.00;;;;;;5080654;28;20206;-72
2022/07/30 00:12:05;;;;;;;11.57;8.20;;;21.60;1.00;;;;;;5088272;28;20211;-73
2022/07/30 00:14:33;;;;;;;8.27;7.37;;;21.60;1.00;;;;;;5083010;28;20180;-73
2022/07/30 00:16:59;;;;;;;9.87;8.10;;;21.60;1.00;;;;;;5088563;28;20528;-72
2022/07/30 00:19:25;;;;;;;8.53;7.60;;;21.60;1.00;;;;;;5087685;28;20540;-73
2022/07/30 00:21:50;;;;;;;10.10;7.77;;;21.50;1.00;;;;;;5084882;28;20201;-73
2022/07/30 00:24:16;;;;;;;10.60;8.90;;;21.60;1.00;;;;;;5087526;28;20175;-73
2022/07/30 00:26:41;;;;;;;10.30;8.77;;;21.60;1.00;;;;;;5081003;28;20180;-72
2022/07/30 00:29:07;;;;;;;9.53;8.50;;;21.40;1.00;;;;;;5074359;28;20264;-72
2022/07/30 00:31:32;;;;;;;10.20;8.67;;;21.30;1.00;;;;;;5086160;28;20195;-72
2022/07/30 00:33:58;;;;;;;12.03;8.90;;;21.20;1.00;;;;;;5094429;28;20186;-72
2022/07/30 00:36:24;;;;;;;8.87;7.97;;;21.20;1.00;;;;;;5087495;28;20179;-73
2022/07/30 00:38:49;;;;;;;10.20;8.47;;;21.10;1.00;;;;;;5085800;28;20224;-72
2022/07/30 00:41:15;;;;;;;8.87;7.97;;;21.00;1.00;;;;;;5083157;28;20740;-72
2022/07/30 00:43:41;;;;;;;11.43;8.13;;;20.90;1.00;;;;;;5089718;28;20542;-73
2022/07/30 00:46:06;;;;;;;10.83;8.37;;;20.70;1.00;;;;;;5082435;28;20267;-72
2022/07/30 00:48:32;;;;;;;9.37;8.27;;;20.60;1.00;;;;;;5088311;28;20187;-73
2022/07/30 00:50:57;;;;;;;10.40;8.03;;;20.50;1.00;;;;;;5077812;28;20198;-73
2022/07/30 00:53:23;;;;;;;9.73;8.60;;;20.40;1.00;;;;;;5084118;28;20201;-72
2022/07/30 00:55:49;;;;;;;9.10;7.73;;;20.30;1.00;;;;;;5088097;28;20171;-72
2022/07/30 00:58:14;;;;;;;10.90;8.57;;;20.20;1.00;;;;;;5075780;28;20185;-74
2022/07/30 01:00:40;;;;;;;9.87;8.10;;;20.10;1.00;;;;;;5085472;28;20653;-73
2022/07/30 01:03:05;;;;;;;10.10;8.20;;;20.00;1.00;;;;;;5086850;28;20198;-73
2022/07/30 01:05:31;;;;;;;10.90;8.80;;;20.00;1.00;;;;;;5085861;28;20193;-72
2022/07/30 01:07:57;;;;;;;9.60;8.23;;;19.90;1.00;;;;;;5088143;28;20202;-72
2022/07/30 01:10:22;;;;;;;12.60;9.00;;;19.90;1.00;;;;;;5090700;28;20736;-73
2022/07/30 01:12:48;;;;;;;10.43;8.90;;;19.90;1.00;;;;;;5089344;28;20199;-72
2022/07/30 01:15:14;;;;;;;11.47;8.60;;;19.90;1.00;;;;;;5087509;28;20584;-73
2022/07/30 01:17:39;;;;;;;11.53;9.00;;;19.90;1.00;;;;;;5088933;28;20179;-73
2022/07/30 01:20:13;;;;;;;9.77;8.77;;;19.90;1.00;;;;;;5087749;28;20180;-72
2022/07/30 01:22:49;;;;;;;10.60;8.47;;;19.90;1.00;;;;;;5088889;28;20175;-72
2022/07/30 01:25:32;;;;;;;10.70;8.50;;;19.70;1.00;;;;;;5080254;28;20420;-73
2022/07/30 01:28:11;;;;;;;10.00;9.00;;;19.80;1.00;;;;;;5089781;28;20453;-72
2022/07/30 01:30:40;;;;;;;10.43;9.10;;;19.70;1.00;;;;;;5082869;28;20457;-73
2022/07/30 01:33:07;;;;;;;9.83;8.60;;;19.60;1.00;;;;;;5085826;28;20866;-72
2022/07/30 01:35:34;;;;;;;10.10;9.00;;;19.50;1.00;;;;;;5087582;28;20461;-73
2022/07/30 01:38:02;;;;;;;11.40;9.30;;;19.50;1.00;;;;;;5080606;28;20937;-73
2022/07/30 01:40:29;;;;;;;12.03;9.70;;;19.20;1.00;;;;;;5083509;28;20947;-72
2022/07/30 01:42:57;;;;;;;16.63;9.80;;;19.10;1.00;;;;;;5087518;28;20405;-73
2022/07/30 01:45:23;;;;;;;11.17;9.60;;;19.00;1.00;;;;;;5084730;28;20425;-72
2022/07/30 01:47:51;;;;;;;11.30;9.03;;;18.90;1.00;;;;;;5087630;28;20981;-72
2022/07/30 01:50:20;;;;;;;12.93;9.27;;;18.80;1.00;;;;;;5083677;28;20436;-72
2022/07/30 01:52:47;;;;;;;16.73;9.60;;;18.80;1.00;;;;;;5075733;28;20437;-73
2022/07/30 01:55:17;;;;;;;11.10;9.50;;;18.70;1.00;;;;;;5082734;28;20421;-72
2022/07/30 01:57:45;;;;;;;10.00;8.63;;;18.60;1.00;;;;;;5086745;28;20437;-73
2022/07/30 02:00:12;;;;;;;14.30;9.57;;;18.60;1.00;;;;;;5087989;28;20499;-73
2022/07/30 02:02:40;;;;;;;12.20;9.40;;;18.50;1.00;;;;;;5087860;28;20452;-73
2022/07/30 02:05:07;;;;;;;13.03;9.53;;;18.40;1.00;;;;;;5090570;28;20430;-72
2022/07/30 02:07:41;;;;;;;11.67;9.23;;;18.40;1.00;;;;;;5089329;28;20408;-72
2022/07/30 02:10:09;;;;;;;14.20;10.37;;;18.30;1.00;;;;;;5087129;28;20437;-73
2022/07/30 02:12:39;;;;;;;14.10;9.67;;;18.20;1.00;;;;;;5087336;28;20446;-73
2022/07/30 02:15:17;;;;;;;11.43;9.97;;;18.20;1.00;;;;;;5087199;28;20517;-73
2022/07/30 02:17:57;;;;;;;10.50;9.37;;;18.20;1.00;;;;;;5088987;28;20817;-73
2022/07/30 02:20:27;;;;;;;11.40;9.87;;;18.10;1.00;;;;;;5087812;28;20432;-72
2022/07/30 02:22:55;;;;;;;10.40;9.40;;;18.10;1.00;;;;;;5087124;28;20471;-72
2022/07/30 02:25:22;;;;;;;13.00;10.13;;;18.10;1.00;;;;;;5088119;28;20491;-72
2022/07/30 02:27:53;;;;;;;11.53;9.33;;;18.10;1.00;;;;;;5087229;28;20801;-72
2022/07/30 02:30:20;;;;;;;10.47;9.37;;;18.10;1.00;;;;;;5087346;28;20425;-72
2022/07/30 02:32:48;;;;;;;13.93;10.10;;;18.10;1.00;;;;;;5094165;28;20800;-73
2022/07/30 02:35:18;;;;;;;10.20;9.17;;;17.90;1.00;;;;;;5095175;28;20433;-72
2022/07/30 02:37:47;;;;;;;13.13;9.50;;;17.90;1.00;;;;;;5089541;28;20412;-72
2022/07/30 02:40:18;;;;;;;10.40;9.23;;;17.80;1.00;;;;;;5087704;28;20491;-72
2022/07/30 02:42:48;;;;;;;13.53;10.10;;;17.90;1.00;;;;;;5088435;28;20414;-72
2022/07/30 02:45:16;;;;;;;12.83;11.43;;;17.90;1.00;;;;;;5087371;28;20437;-72
2022/07/30 02:47:44;;;;;;;17.20;10.20;;;17.90;1.00;;;;;;5088816;28;20414;-72
2022/07/30 02:50:12;;;;;;;14.13;10.10;;;17.90;1.00;;;;;;5089000;28;20441;-72
2022/07/30 02:52:40;;;;;;;10.67;9.57;;;18.00;1.00;;;;;;5083708;28;20450;-72
2022/07/30 02:55:08;;;;;;;12.20;9.80;;;18.00;1.00;;;;;;5092647;28;20938;-72
2022/07/30 02:57:36;;;;;;;11.13;9.60;;;18.00;1.00;;;;;;5088774;28;21158;-72
2022/07/30 03:00:03;;;;;;;12.90;9.90;;;18.00;1.00;;;;;;5082098;28;20424;-72
2022/07/30 03:02:29;;;;;;;10.93;9.57;;;18.10;1.00;;;;;;5089353;28;20434;-72
2022/07/30 03:04:56;;;;;;;13.90;10.20;;;18.00;1.00;;;;;;5092573;28;20466;-73
2022/07/30 03:07:22;;;;;;;11.33;10.20;;;18.10;1.00;;;;;;5091618;28;20189;-72
2022/07/30 03:09:49;;;;;;;11.37;9.30;;;18.00;1.00;;;;;;5086507;28;21001;-72
2022/07/30 03:12:16;;;;;;;11.60;10.10;;;17.90;1.00;;;;;;5090189;28;20191;-72
2022/07/30 03:14:42;;;;;;;15.20;10.97;;;17.90;1.00;;;;;;5090640;28;20789;-73
2022/07/30 03:17:09;;;;;;;11.43;10.10;;;17.90;1.00;;;;;;5091942;28;20409;-72
2022/07/30 03:19:37;;;;;;;14.53;10.43;;;17.90;1.00;;;;;;5089377;28;20211;-72
2022/07/30 03:22:05;;;;;;;12.97;9.77;;;17.90;1.00;;;;;;5072042;28;20491;-72
2022/07/30 03:24:33;;;;;;;12.50;10.67;;;17.80;1.00;;;;;;5079125;28;20438;-72
2022/07/30 03:27:02;;;;;;;12.50;9.83;;;17.70;1.00;;;;;;5091937;28;20501;-72
2022/07/30 03:29:28;;;;;;;12.13;10.60;;;17.60;1.00;;;;;;5082553;28;20458;-72
2022/07/30 03:31:54;;;;;;;13.37;10.90;;;17.70;1.00;;;;;;5090218;28;20445;-72
2022/07/30 03:34:21;;;;;;;12.73;11.43;;;17.60;1.10;;;;;;5106532;28;20401;-72
2022/07/30 03:36:46;;;;;;;12.37;10.97;;;17.60;2.50;;;;;;5083028;28;20261;-71
2022/07/30 03:39:12;;;;;;;13.20;11.80;;;17.50;3.40;;;;;;5090532;28;20965;-72
2022/07/30 03:41:39;;;;;;;13.30;11.30;;;17.50;4.50;;;;;;5087523;28;20200;-72
2022/07/30 03:44:06;;;;;;;12.10;10.50;;;17.50;4.50;;;;;;5092561;28;20406;-72
2022/07/30 03:46:35;;;;;;;11.93;10.80;;;17.40;4.40;;;;;;5088816;28;20436;-72
2022/07/30 03:49:01;;;;;;;12.80;11.03;;;17.40;5.00;;;;;;5075154;28;20465;-72
2022/07/30 03:51:27;;;;;;;18.70;11.03;;;17.40;6.20;;;;;;5090495;28;20522;-72
2022/07/30 03:53:53;;;;;;;12.97;11.50;;;17.40;6.90;;;;;;5086782;28;20431;-72
2022/07/30 03:56:19;;;;;;;11.00;9.90;;;17.40;6.80;;;;;;5091512;28;20908;-72
2022/07/30 03:58:45;;;;;;;13.10;11.10;;;17.30;6.20;;;;;;5086473;28;20435;-72
2022/07/30 04:01:10;;;;;;;12.40;9.97;;;18.60;6.50;;;;;;5088273;28;20196;-72
2022/07/30 04:03:36;;;;;;;10.53;9.23;;;17.30;5.70;;;;;;5092558;28;20264;-72
2022/07/30 04:06:02;;;;;;;9.93;8.90;;;17.20;2.30;;;;;;5091889;28;20664;-72
2022/07/30 04:08:27;;;;;;;10.60;8.40;;;17.20;1.00;;;;;;5087886;28;20226;-72
2022/07/30 04:10:53;;;;;;;10.07;9.07;;;17.20;1.00;;;;;;5087368;28;20214;-72
2022/07/30 04:13:19;;;;;;;11.50;9.43;;;17.10;1.00;;;;;;5087252;28;20557;-72
2022/07/30 04:15:57;;;;;;;14.20;9.63;;;17.10;2.70;;;;;;5088332;28;20426;-72
2022/07/30 04:18:25;;;;;;;10.53;9.30;;;17.10;3.00;;;;;;5091215;28;20167;-72
2022/07/30 04:20:52;;;;;;;10.60;9.00;;;17.10;3.50;;;;;;5088822;28;20484;-72
2022/07/30 04:23:18;;;;;;;11.67;9.17;;;17.10;1.90;;;;;;5089645;28;20935;-72
2022/07/30 04:25:45;;;;;;;13.27;9.30;;;17.20;1.00;;;;;;5080232;28;20447;-72
2022/07/30 04:28:11;;;;;;;10.00;9.00;;;17.10;1.00;;;;;;5091081;28;20545;-72
2022/07/30 04:30:36;;;;;;;11.93;10.03;;;17.20;1.00;;;;;;5081581;28;20490;-73
2022/07/30 04:33:03;;;;;;;12.60;10.40;;;17.20;2.50;;;;;;5079772;28;20480;-73
2022/07/30 04:35:30;;;;;;;12.53;9.53;;;17.20;2.40;;;;;;5091501;28;20168;-72
2022/07/30 04:37:56;;;;;;;13.23;9.70;;;17.30;2.80;;;;;;5082587;28;20931;-72
2022/07/30 04:40:21;;;;;;;10.80;9.60;;;17.40;1.00;;;;;;5086700;28;20434;-72
2022/07/30 04:42:47;;;;;;;13.97;9.83;;;17.40;1.00;;;;;;5089702;28;20468;-72
2022/07/30 04:45:13;;;;;;;11.77;10.00;;;17.50;1.00;;;;;;5088488;28;20175;-73
2022/07/30 04:47:38;;;;;;;11.10;9.43;;;17.60;1.00;;;;;;5089917;28;20260;-72
2022/07/30 04:50:06;;;;;;;16.03;9.60;;;17.60;1.00;;;;;;5083146;28;20188;-72
2022/07/30 04:52:33;;;;;;;11.33;9.93;;;17.70;1.00;;;;;;5086244;28;20210;-72
2022/07/30 04:55:02;;;;;;;11.50;9.90;;;17.80;1.00;;;;;;5087785;28;20441;-72
2022/07/30 04:57:30;;;;;;;14.57;10.60;;;17.80;1.00;;;;;;5084882;28;20489;-72
2022/07/30 04:59:56;;;;;;;11.37;10.27;;;17.70;1.00;;;;;;5086991;28;20442;-72
2022/07/30 05:02:25;;;;;;;10.97;9.87;;;17.70;1.00;;;;;;5079611;28;20461;-72
2022/07/30 05:04:53;;;;;;;11.90;9.77;;;17.70;1.00;;;;;;5087679;28;20931;-72
2022/07/30 05:07:20;;;;;;;15.23;9.50;;;17.70;1.00;;;;;;5084261;28;20438;-72
2022/07/30 05:09:46;;;;;;;13.47;10.53;;;17.70;1.00;;;;;;5086909;28;20523;-72
2022/07/30 05:12:12;;;;;;;15.73;9.80;;;17.80;1.00;;;;;;5088586;28;20442;-72
2022/07/30 05:14:37;;;;;;;11.47;10.27;;;18.70;1.00;;;;;;5085575;28;20267;-72
2022/07/30 05:17:03;;;;;;;12.63;10.10;;;18.00;1.00;;;;;;5091412;28;20527;-72
2022/07/30 05:19:29;;;;;;;12.67;10.43;;;18.10;1.00;;;;;;5081374;28;20204;-72
2022/07/30 05:21:54;;;;;;;12.13;10.60;;;18.20;1.00;;;;;;5086966;28;20204;-72
2022/07/30 05:24:20;;;;;;;17.13;11.50;;;18.30;1.00;;;;;;5068952;28;20673;-72
2022/07/30 05:26:46;;;;;;;13.30;10.70;;;18.30;1.00;;;;;;5078532;28;20199;-72
2022/07/30 05:29:13;;;;;;;12.63;10.77;;;18.30;1.00;;;;;;5084304;28;20480;-72
2022/07/30 05:31:38;;;;;;;13.40;11.27;;;18.50;1.00;;;;;;5080213;28;20450;-72
2022/07/30 05:34:04;;;;;;;14.90;10.53;;;18.60;1.00;;;;;;5085104;28;20703;-72
2022/07/30 05:36:30;;;;;;;14.90;10.33;;;18.60;1.00;;;;;;5088802;28;20660;-72
2022/07/30 05:38:56;;;;;;;16.10;11.10;;;18.70;1.00;;;;;;5086879;28;20176;-72
2022/07/30 05:41:21;;;;;;;13.00;10.13;;;18.80;1.00;;;;;;5083211;28;20728;-72
2022/07/30 05:43:47;;;;;;;11.20;10.00;;;18.80;1.00;;;;;;5084925;28;20190;-72
2022/07/30 05:46:12;;;;;;;13.00;9.80;;;19.90;1.00;;;;;;5083259;28;20185;-72
2022/07/30 05:48:38;;;;;;;10.90;9.80;;;19.20;1.00;;;;;;5086178;28;20211;-72
2022/07/30 05:51:04;;;;;;;13.87;10.23;;;19.30;1.00;;;;;;5088374;28;20200;-72
2022/07/30 05:53:30;;;;;;;13.07;9.70;;;19.40;1.00;;;;;;5079956;28;20230;-72
2022/07/30 05:55:56;;;;;;;17.13;9.90;;;19.60;1.00;;;;;;5085734;28;20432;-72
2022/07/30 05:58:21;;;;;;;11.40;8.77;;;19.70;1.00;;;;;;5076822;28;20428;-73
2022/07/30 06:00:47;;;;;;;16.63;10.50;;;19.90;1.00;;;;;;5087017;28;20208;-73
2022/07/30 06:03:13;;;;;;;11.87;8.30;;;20.10;1.00;;;;;;5087469;28;20191;-73
2022/07/30 06:05:39;;;;;;;12.33;9.07;;;20.20;1.00;;;;;;5081981;28;20176;-73
2022/07/30 06:08:04;;;;;;;14.37;9.80;;;20.30;1.00;;;;;;5080861;28;20484;-74
2022/07/30 06:10:30;;;;;;;13.47;8.67;;;20.40;1.00;;;;;;5093236;28;20680;-72
2022/07/30 06:12:55;;;;;;;11.47;8.30;;;20.60;1.00;;;;;;5097719;28;20263;-74
2022/07/30 06:15:21;;;;;;;10.07;8.27;;;20.60;1.00;;;;;;5089593;28;20167;-74
2022/07/30 06:17:47;;;;;;;11.60;8.47;;;20.60;1.00;;;;;;5083167;28;20223;-73
2022/07/30 06:20:14;;;;;;;11.50;8.20;;;20.80;1.00;;;;;;5077311;28;20237;-72
2022/07/30 06:22:40;;;;;;;15.00;8.00;;;21.00;1.00;;;;;;5090153;28;20176;-72
2022/07/30 06:25:06;;;;;;;9.90;8.40;;;21.10;1.00;;;;;;5092388;28;20405;-74
2022/07/30 06:27:32;;;;;;;16.90;8.90;;;21.20;1.00;;;;;;5089090;28;20199;-73
2022/07/30 06:30:00;;;;;;;15.63;8.63;;;21.30;1.00;;;;;;5087437;28;20465;-72
2022/07/30 06:32:25;;;;;;;15.50;8.67;;;21.40;1.00;;;;;;5089442;28;20203;-72
2022/07/30 06:34:51;;;;;;;11.07;8.10;;;21.40;1.00;;;;;;5093765;28;20416;-73
2022/07/30 06:37:16;;;;;;;13.37;8.17;;;21.60;1.00;;;;;;5086711;28;20182;-72
2022/07/30 06:39:42;;;;;;;15.87;8.57;;;21.70;1.00;;;;;;5091193;28;20634;-72
2022/07/30 06:42:07;;;;;;;11.10;7.30;;;21.80;1.00;;;;;;5084722;28;20294;-72
2022/07/30 06:44:33;;;;;;;13.30;7.60;;;22.00;1.00;;;;;;5092404;28;20187;-72
2022/07/30 06:46:58;;;;;;;9.83;8.30;;;22.10;1.00;;;;;;5092130;28;20677;-72
2022/07/30 06:49:24;;;;;;;9.87;7.53;;;22.20;1.00;;;;;;5093544;28;20187;-72
2022/07/30 06:51:50;;;;;;;13.60;8.60;;;22.30;1.00;;;;;;5090838;28;20199;-72
2022/07/30 06:54:15;;;;;;;15.43;8.97;;;22.30;1.00;;;;;;5092560;28;20168;-72
2022/07/30 06:56:41;;;;;;;11.00;8.10;;;22.30;1.00;;;;;;5092086;28;20227;-72
2022/07/30 06:59:06;;;;;;;11.27;7.57;;;22.50;1.00;;;;;;5088423;28;20179;-73
2022/07/30 07:01:32;;;;;;;10.80;7.47;;;22.60;1.00;;;;;;5095235;28;20203;-72
2022/07/30 07:03:57;;;;;;;8.90;7.60;;;22.80;1.00;;;;;;5095692;28;20608;-72
2022/07/30 07:06:23;;;;;;;13.67;9.30;;;23.10;1.00;;;;;;5088091;28;20724;-72
2022/07/30 07:08:48;;;;;;;11.73;8.40;;;23.20;1.00;;;;;;5092402;28;20221;-73
2022/07/30 07:11:14;;;;;;;12.67;7.60;;;23.50;1.00;;;;;;5077413;28;20569;-73
2022/07/30 07:13:39;;;;;;;17.20;9.33;;;23.50;1.00;;;;;;5079767;28;20199;-72
2022/07/30 07:16:05;;;;;;;14.33;9.87;;;23.60;1.00;;;;;;5083926;28;20172;-72
2022/07/30 07:18:30;;;;;;;12.03;9.03;;;23.80;1.00;;;;;;5072800;28;20180;-73
2022/07/30 07:20:56;;;;;;;12.30;9.47;;;23.90;1.00;;;;;;5072227;28;20747;-72
2022/07/30 07:23:22;;;;;;;10.60;8.77;;;24.10;1.00;;;;;;5072481;28;20172;-72
2022/07/30 07:25:48;;;;;;;11.93;7.67;;;24.50;1.00;;;;;;5071890;28;20171;-72
2022/07/30 07:28:13;;;;;;;13.70;10.03;;;25.10;1.00;;;;;;5084692;28;20742;-72
2022/07/30 07:30:40;;;;;;;12.00;8.90;;;25.50;1.00;;;;;;5083537;28;20203;-72
2022/07/30 07:33:05;;;;;;;10.67;8.10;;;25.60;1.00;;;;;;5100015;28;20237;-73
2022/07/30 07:35:32;;;;;;;10.57;8.47;;;25.70;1.00;;;;;;5109134;28;20907;-72
2022/07/30 07:37:57;;;;;;;13.20;8.23;;;25.80;1.00;;;;;;5113033;28;20173;-74
2022/07/30 07:40:23;;;;;;;10.50;9.20;;;25.60;1.00;;;;;;5107286;28;20919;-72
2022/07/30 07:42:48;;;;;;;13.40;8.60;;;25.40;1.00;;;;;;5088143;28;20179;-72
2022/07/30 07:45:14;;;;;;;11.90;8.70;;;25.30;1.00;;;;;;5092738;28;20638;-73
2022/07/30 07:47:47;;;;;;;13.17;7.77;;;25.60;1.00;;;;;;5091767;28;20202;-72
2022/07/30 07:50:15;;;;;;;12.67;7.80;;;25.90;1.00;;;;;;5090219;28;20674;-73
2022/07/30 07:52:40;;;;;;;10.00;6.73;;;26.30;1.00;;;;;;5079825;28;20478;-72
2022/07/30 07:55:07;;;;;;;13.87;7.90;;;26.60;1.00;;;;;;5090714;28;20397;-72
2022/07/30 07:57:43;;;;;;;12.20;7.63;;;26.70;1.00;;;;;;5074575;28;20182;-72
2022/07/30 08:00:11;;;;;;;12.30;7.60;;;26.80;1.00;;;;;;5070860;28;20417;-73
2022/07/30 08:02:38;;;;;;;13.63;8.30;;;27.10;1.00;;;;;;5094964;28;20945;-72
2022/07/30 08:05:04;;;;;;;9.50;8.50;;;27.30;1.00;;;;;;5104786;28;20400;-72
2022/07/30 08:07:31;;;;;;;12.20;7.37;;;27.50;1.00;;;;;;5093542;28;20500;-73
2022/07/30 08:09:56;;;;;;;17.43;7.90;;;27.80;1.00;;;;;;5091817;28;20191;-72
2022/07/30 08:12:22;;;;;;;11.63;7.90;;;27.90;1.00;;;;;;5090644;28;20191;-72
2022/07/30 08:14:48;;;;;;;11.60;8.40;;;28.10;1.00;;;;;;5092167;28;20677;-72
2022/07/30 08:17:14;;;;;;;11.97;8.13;;;28.20;1.00;;;;;;5077768;28;20180;-72
2022/07/30 08:19:39;;;;;;;12.40;8.90;;;28.40;1.00;;;;;;5072926;28;20183;-73
2022/07/30 08:22:05;;;;;;;12.10;8.50;;;28.40;1.00;;;;;;5070860;28;20271;-72
2022/07/30 08:24:31;;;;;;;11.03;8.70;;;28.10;1.00;;;;;;5078471;28;20186;-73
2022/07/30 08:26:57;;;;;;;12.70;9.20;;;27.90;1.00;;;;;;5089974;28;20194;-73
2022/07/30 08:29:22;;;;;;;13.50;8.30;;;28.10;1.00;;;;;;5073306;28;20670;-72
2022/07/30 08:31:48;;;;;;;10.40;7.57;;;28.60;1.00;;;;;;5081576;28;20248;-73
2022/07/30 08:34:13;;;;;;;12.17;7.87;;;28.80;1.00;;;;;;5103226;28;20206;-72
2022/07/30 08:36:40;;;;;;;14.50;8.40;;;28.90;1.00;;;;;;5103175;28;20254;-73
2022/07/30 08:39:05;;;;;;;9.70;7.87;;;28.90;1.00;;;;;;5087475;28;20182;-72
2022/07/30 08:41:31;;;;;;;13.17;7.20;;;29.20;1.00;;;;;;5090111;28;20191;-72
2022/07/30 08:43:59;;;;;;;12.53;8.30;;;29.70;1.00;;;;;;5091180;28;20649;-72
2022/07/30 08:46:28;;;;;;;12.13;8.50;;;30.20;1.00;;;;;;5084582;28;20228;-73
2022/07/30 08:48:54;;;;;;;8.93;7.30;;;30.30;1.00;;;;;;5070628;28;20271;-73
2022/07/30 08:51:20;;;;;;;12.53;7.20;;;30.70;1.00;;;;;;5070249;28;20747;-73
2022/07/30 08:53:47;;;;;;;9.57;6.85;;;31.50;1.00;;;;;;5071206;28;20196;-73
2022/07/30 08:56:13;;;;;;;11.05;7.05;;;32.30;1.00;;;;;;5089577;28;20167;-73
2022/07/30 08:58:38;;;;;;;11.48;6.38;;;33.10;1.00;;;;;;5091092;28;20178;-73
2022/07/30 09:01:05;;;;;;;8.02;5.63;;;34.00;1.00;;;;;;5089839;28;20210;-73
2022/07/30 09:03:31;;;;;;;7.25;5.75;;;34.60;1.00;;;;;;5098060;28;20546;-74
2022/07/30 09:05:57;;;;;;;8.50;5.60;;;35.80;1.00;;;;;;5092648;28;20546;-73
2022/07/30 09:08:23;;;;;;;7.60;5.00;;;36.80;1.00;;;;;;5089709;28;20207;-74
2022/07/30 09:10:49;;;;;;;11.82;5.63;;;37.60;1.00;;;;;;5088529;28;20218;-74
2022/07/30 09:13:28;;;;;;;10.05;5.65;;;37.20;1.00;;;;;;5090224;28;20170;-74
2022/07/30 09:15:54;;;;;;;8.13;4.82;;;36.20;1.00;;;;;;5089684;28;20567;-74
2022/07/30 09:18:28;;;;;;;9.50;5.05;;;35.80;1.00;;;;;;5089870;28;20599;-73
2022/07/30 09:20:54;;;;;;;7.28;4.75;;;35.30;1.00;;;;;;5090188;28;20194;-73
2022/07/30 09:23:19;;;;;;;6.28;4.90;;;33.40;1.00;;;;;;5090405;28;20163;-74
2022/07/30 09:25:47;;;;;;;7.70;4.72;;;32.80;1.00;;;;;;5076705;28;20254;-74
2022/07/30 09:28:13;;;;;;;8.95;5.20;;;33.60;1.00;;;;;;5071631;28;20191;-74
2022/07/30 09:30:51;;;;;;;5.97;4.40;;;34.90;1.00;;;;;;5070028;28;20186;-73
2022/07/30 09:33:36;;;;;;;9.05;4.40;;;36.00;1.00;;;;;;5098463;28;20229;-74
2022/07/30 09:36:04;;;;;;;8.30;4.00;;;35.60;1.00;;;;;;5085474;28;20170;-73
2022/07/30 09:38:50;;;;;;;5.88;3.90;;;34.80;1.00;;;;;;5088369;28;20708;-74
2022/07/30 09:41:31;;;;;;;10.15;3.50;;;35.50;1.00;;;;;;5083109;28;20561;-73
2022/07/30 09:43:59;;;;;;;4.90;3.72;;;36.80;1.00;;;;;;5090994;28;20224;-74
2022/07/30 09:46:45;;;;;;;7.47;3.65;;;37.60;1.00;;;;;;5089486;28;20183;-74
2022/07/30 09:49:16;;;;;;;6.78;4.10;;;38.30;1.00;;;;;;5090172;28;20197;-74
2022/07/30 09:51:41;;;;;;;12.40;4.45;;;39.40;1.00;;;;;;5089745;28;20667;-75
2022/07/30 09:54:07;;;;;;;8.40;3.88;;;39.60;1.00;;;;;;5089785;28;20254;-74
2022/07/30 09:56:32;;;;;;;6.63;4.25;;;39.00;1.00;;;;;;5071305;28;20801;-74
2022/07/30 09:58:58;;;;;;;6.10;4.25;;;37.50;1.00;;;;;;5074443;28;20176;-74
2022/07/30 10:01:23;;;;;;;6.82;4.40;;;36.10;1.00;;;;;;5077482;28;20198;-73
2022/07/30 10:03:49;;;;;;;9.13;3.75;;;35.20;1.00;;;;;;5104608;28;20248;-73
2022/07/30 10:06:15;;;;;;;6.00;4.25;;;35.30;1.00;;;;;;5115109;28;20242;-73
2022/07/30 10:08:48;;;;;;;6.57;4.38;;;35.20;1.00;;;;;;5114068;28;20202;-73
2022/07/30 10:11:16;;;;;;;6.38;4.10;;;35.00;1.00;;;;;;5112830;28;20193;-73
2022/07/30 10:13:42;;;;;;;6.35;3.90;;;36.30;1.00;;;;;;5082790;28;20175;-73
2022/07/30 10:16:08;;;;;;;5.88;4.53;;;37.30;1.00;;;;;;5092372;28;20167;-74
2022/07/30 10:18:35;;;;;;;6.78;3.72;;;37.60;1.00;;;;;;5094148;28;20186;-74
2022/07/30 10:21:02;;;;;;;4.72;3.60;;;37.10;1.00;;;;;;5093792;28;20568;-73
2022/07/30 10:23:28;;;;;;;7.60;4.68;;;37.50;1.00;;;;;;5091222;28;20447;-74
2022/07/30 10:25:56;;;;;;;8.15;4.30;;;37.00;1.00;;;;;;5093057;28;20274;-74
2022/07/30 10:28:23;;;;;;;8.25;4.60;;;35.30;1.00;;;;;;5093943;28;20237;-74
2022/07/30 10:30:50;;;;;;;5.95;4.03;;;33.70;1.00;;;;;;5093376;28;20692;-73
2022/07/30 10:33:16;;;;;;;7.28;3.83;;;34.10;1.00;;;;;;5097004;28;20427;-74
2022/07/30 10:35:42;;;;;;;9.23;4.25;;;35.70;1.00;;;;;;5096514;28;20176;-74
2022/07/30 10:38:10;;;;;;;10.00;4.55;;;36.40;1.00;;;;;;5093531;28;20178;-73
2022/07/30 10:40:40;;;;;;;6.18;4.07;;;36.70;1.00;;;;;;5091756;28;20198;-74
2022/07/30 10:43:25;;;;;;;7.65;4.22;;;37.30;1.00;;;;;;5090685;28;20175;-74
2022/07/30 10:45:50;;;;;;;8.98;4.35;;;37.10;1.00;;;;;;5093291;28;20193;-73
2022/07/30 10:48:18;;;;;;;5.90;4.00;;;36.40;1.00;;;;;;5093394;28;20297;-74
2022/07/30 10:50:56;;;;;;;6.97;4.10;;;37.40;1.00;;;;;;5093350;28;20179;-74
2022/07/30 10:53:35;;;;;;;8.30;3.85;;;38.50;1.00;;;;;;5085963;28;20657;-74
2022/07/30 10:56:23;;;;;;;7.28;3.75;;;38.10;1.00;;;;;;5073776;28;20207;-73
2022/07/30 10:59:04;;;;;;;5.20;3.80;;;36.80;1.00;;;;;;5073740;28;20180;-73
2022/07/30 11:01:45;;;;;;;4.35;3.50;;;35.10;1.00;;;;;;5077247;28;20200;-74
2022/07/30 11:04:17;;;;;;;6.43;3.80;;;36.20;1.00;;;;;;5086013;28;20245;-73
2022/07/30 11:06:43;;;;;;;4.63;3.58;;;38.30;1.00;;;;;;5092899;28;20175;-74
2022/07/30 11:09:38;;;;;;;8.90;3.95;;;38.80;1.00;;;;;;5091181;28;20564;-74
2022/07/30 11:12:05;;;;;;;7.57;3.80;;;36.90;1.00;;;;;;5085782;28;20577;-73
2022/07/30 11:14:46;;;;;;;6.43;4.05;;;35.00;1.00;;;;;;5089003;28;20181;-73
2022/07/30 11:17:16;;;;;;;7.97;4.68;;;33.60;1.00;;;;;;5092182;28;20183;-73
2022/07/30 11:20:09;;;;;;;7.00;4.32;;;33.30;1.00;;;;;;5092595;28;20179;-74
2022/07/30 11:22:40;;;;;;;6.05;4.10;;;35.50;1.00;;;;;;5091553;28;20199;-73
2022/07/30 11:25:31;;;;;;;5.38;3.65;;;37.30;1.00;;;;;;5092415;28;20167;-73
2022/07/30 11:27:59;;;;;;;5.68;3.65;;;38.70;1.00;;;;;;5073360;28;20732;-73
2022/07/30 11:30:28;;;;;;;4.35;3.28;;;38.70;1.00;;;;;;5072593;28;20239;-74
2022/07/30 11:33:20;;;;;;;5.25;3.83;;;38.60;1.00;;;;;;5098475;28;20181;-74
2022/07/30 11:36:05;;;;;;;6.20;3.33;;;38.20;1.00;;;;;;5102632;28;20223;-73
2022/07/30 11:38:56;;;;;;;5.45;3.40;;;39.40;1.00;;;;;;5090535;28;20179;-74
2022/07/30 11:41:22;;;;;;;9.63;3.40;;;38.30;1.00;;;;;;5085870;28;20292;-74
2022/07/30 11:44:08;;;;;;;5.03;3.55;;;35.70;1.00;;;;;;5092905;28;20488;-73
2022/07/30 11:46:34;;;;;;;4.05;3.05;;;34.90;1.00;;;;;;5091737;28;20337;-74
2022/07/30 11:49:07;;;;;;;5.30;3.60;;;35.10;1.00;;;;;;5089966;28;20199;-73
2022/07/30 11:51:40;;;;;;;5.07;3.35;;;37.00;1.00;;;;;;5091449;28;20244;-73
2022/07/30 11:54:07;;;;;;;12.88;3.50;;;38.50;1.00;;;;;;5091805;28;20169;-74
2022/07/30 11:56:33;;;;;;;6.60;3.30;;;39.10;1.00;;;;;;5086946;28;20175;-74
2022/07/30 11:59:08;;;;;;;5.93;3.65;;;40.50;1.00;;;;;;5092378;28;20172;-74
2022/07/30 12:01:34;;;;;;;5.40;3.80;;;40.20;1.00;;;;;;5087980;28;20203;-74
2022/07/30 12:04:04;;;;;;;10.25;3.60;;;39.90;1.00;;;;;;5103701;28;20178;-74
2022/07/30 12:06:31;;;;;;;4.20;3.20;;;40.70;1.00;;;;;;5101648;28;20453;-74
2022/07/30 12:08:57;;;;;;;5.88;3.22;;;41.80;1.00;;;;;;5089436;28;20203;-74
2022/07/30 12:11:23;;;;;;;6.88;3.70;;;40.90;1.00;;;;;;5089418;28;20277;-74
2022/07/30 12:13:58;;;;;;;5.20;3.20;;;42.00;1.00;;;;;;5092459;28;20171;-74
2022/07/30 12:16:25;;;;;;;5.47;3.10;;;42.30;1.00;;;;;;5082657;28;20171;-74
2022/07/30 12:18:51;;;;;;;6.88;3.30;;;42.60;1.00;;;;;;5072020;28;20707;-74
2022/07/30 12:21:17;;;;;;;5.78;3.33;;;42.10;1.00;;;;;;5070874;28;20204;-74
2022/07/30 12:23:57;;;;;;;3.85;3.05;;;41.40;1.00;;;;;;5071025;28;20172;-74
2022/07/30 12:26:25;;;;;;;5.13;3.25;;;40.20;1.00;;;;;;5078080;28;20222;-74
2022/07/30 12:28:51;;;;;;;6.25;3.00;;;39.80;1.00;;;;;;5084373;28;20195;-74
2022/07/30 12:31:17;;;;;;;4.30;3.17;;;40.30;1.00;;;;;;5090193;28;20195;-74
2022/07/30 12:33:43;;;;;;;5.80;3.17;;;40.60;1.00;;;;;;5100778;28;20182;-74
2022/07/30 12:36:09;;;;;;;5.95;3.55;;;41.00;1.00;;;;;;5104528;28;20167;-74
2022/07/30 12:38:47;;;;;;;6.93;3.25;;;40.20;1.00;;;;;;5089173;28;20667;-74
2022/07/30 12:41:13;;;;;;;7.85;3.22;;;40.30;1.00;;;;;;5088897;28;20248;-74
2022/07/30 12:43:54;;;;;;;9.38;3.40;;;39.80;1.00;;;;;;5091406;28;20637;-74
2022/07/30 12:46:25;;;;;;;5.05;3.00;;;39.40;1.00;;;;;;5083489;28;20180;-74
2022/07/30 12:49:09;;;;;;;3.72;2.88;;;39.10;1.00;;;;;;5070763;28;20192;-74
2022/07/30 12:51:48;;;;;;;6.60;3.42;;;39.40;1.00;;;;;;5070229;28;20282;-74
2022/07/30 12:54:16;;;;;;;5.05;2.60;;;41.10;1.00;;;;;;5069027;28;20678;-74